Etusivu
METAR-TAF:

METAR-TAF

Lentoasemat :

Rønne, Tanska

Leveyspiiri: 55-04N, Pituuspiiri: 014-45E, korkeus merenpinnasta: 16 m

Tämänhetkinen sää

Tämä raportti tehtiin 22 minuuttia sitten, kello 10.20 UTC
Tuuli 3 kn pohjoisen/luoteesta
Lämpötila 6°C
Kosteus 75%
Ilmanpaine 1026 hPa
Näkyvyys 10 km tai enemmän

METAR: EKRN 281020Z AUTO 34003KT 9999 OVC028/// 06/02 Q1026

Aika: 11:42 (10:42 UTC)

Sääennuste

Tämä raportti tehtiin 1 tunti ja 55 minuuttia sitten, kello 08.47 UTC
Ennuste voimassa 28. päivästä klo 09 UTC - 28. päivään klo 18 UTC
Tuuli 5 kn pohjoisesta/koillisesta
Näkyvyys 10 km tai enemmän
Hajanaisia pilviä 2500 ft:n korkeudessa, Kasvava cumulus-pilvi.

TAF: EKRN 280847Z 2809/2818 02005KT 9999 SCT025TCU

Säähavainnot ja -ennusteet yli 4000 lentoasemalta (METAR- ja TAF-raportit).

Käytössä olevat sääasemat on merkitty karttaan keltaisilla ja punaisilla pisteillä.

Aseta hiiri pisteen päälle nähdäksesi sääaseman nimen.

Klikkaa sitten nähdäksesi säähavainnot ja -ennusteet.

Kartan vaihtaminen: klikkaa mustalla rastilla varustettuja vihreitä pisteitä, niin voit zoomata sisään; viivalla varustettua vihreää pistettä, niin voit zoomata ulos tai vihreitä nuolia, niin pääset viereisille kartoille.


METAR-TAF: